sensor_id;sensor_type;location;lat;lon;timestamp;pressure;altitude;pressure_sealevel;temperature;humidity
40155;BME280;25875;48.202;16.334;2023-05-12T00:01:05;99029.69;;;12.50;62.03
40155;BME280;25875;48.202;16.334;2023-05-12T00:03:32;99026.91;;;12.52;62.08
40155;BME280;25875;48.202;16.334;2023-05-12T00:05:59;99022.56;;;12.51;61.66
40155;BME280;25875;48.202;16.334;2023-05-12T00:08:27;98966.19;;;12.21;61.76
40155;BME280;25875;48.202;16.334;2023-05-12T00:10:55;99035.31;;;12.59;61.91
40155;BME280;25875;48.202;16.334;2023-05-12T00:13:22;99031.41;;;12.64;61.84
40155;BME280;25875;48.202;16.334;2023-05-12T00:15:50;99028.53;;;12.67;62.41
40155;BME280;25875;48.202;16.334;2023-05-12T00:18:19;99033.63;;;12.70;61.79
40155;BME280;25875;48.202;16.334;2023-05-12T00:20:45;99040.00;;;12.68;61.83
40155;BME280;25875;48.202;16.334;2023-05-12T00:23:12;99033.22;;;12.64;62.01
40155;BME280;25875;48.202;16.334;2023-05-12T00:25:39;99035.13;;;12.62;62.18
40155;BME280;25875;48.202;16.334;2023-05-12T00:28:05;99030.00;;;12.59;62.23
40155;BME280;25875;48.202;16.334;2023-05-12T00:30:32;99030.66;;;12.62;62.26
40155;BME280;25875;48.202;16.334;2023-05-12T00:33:00;99026.94;;;12.65;62.36
40155;BME280;25875;48.202;16.334;2023-05-12T00:35:27;99026.72;;;12.68;62.24
40155;BME280;25875;48.202;16.334;2023-05-12T00:37:54;99026.72;;;12.68;62.28
40155;BME280;25875;48.202;16.334;2023-05-12T00:40:21;99024.69;;;12.71;62.29
40155;BME280;25875;48.202;16.334;2023-05-12T00:42:47;99021.72;;;12.76;61.76
40155;BME280;25875;48.202;16.334;2023-05-12T00:45:15;99027.78;;;12.78;61.97
40155;BME280;25875;48.202;16.334;2023-05-12T00:47:43;98980.66;;;12.55;62.11
40155;BME280;25875;48.202;16.334;2023-05-12T00:50:12;99028.44;;;12.81;62.29
40155;BME280;25875;48.202;16.334;2023-05-12T00:52:39;99031.50;;;12.75;62.23
40155;BME280;25875;48.202;16.334;2023-05-12T00:55:06;99032.88;;;12.68;62.95
40155;BME280;25875;48.202;16.334;2023-05-12T00:57:33;99029.81;;;12.62;62.89
40155;BME280;25875;48.202;16.334;2023-05-12T01:00:00;99012.88;;;12.50;63.05
40155;BME280;25875;48.202;16.334;2023-05-12T01:02:26;99033.75;;;12.69;63.03
40155;BME280;25875;48.202;16.334;2023-05-12T01:04:54;99034.28;;;12.74;62.76
40155;BME280;25875;48.202;16.334;2023-05-12T01:07:24;99036.09;;;12.73;63.50
40155;BME280;25875;48.202;16.334;2023-05-12T01:09:54;98919.88;;;11.98;64.24
40155;BME280;25875;48.202;16.334;2023-05-12T01:12:21;99041.59;;;12.58;63.88
40155;BME280;25875;48.202;16.334;2023-05-12T01:14:48;99036.81;;;12.50;64.41
40155;BME280;25875;48.202;16.334;2023-05-12T01:17:19;99029.13;;;12.33;65.17
40155;BME280;25875;48.202;16.334;2023-05-12T01:19:47;99044.44;;;12.42;66.20
40155;BME280;25875;48.202;16.334;2023-05-12T01:22:16;99045.81;;;12.35;65.43
40155;BME280;25875;48.202;16.334;2023-05-12T01:24:49;99044.53;;;12.28;67.60
40155;BME280;25875;48.202;16.334;2023-05-12T01:27:19;98968.75;;;11.68;66.62
40155;BME280;25875;48.202;16.334;2023-05-12T01:29:47;99048.25;;;12.25;66.17
40155;BME280;25875;48.202;16.334;2023-05-12T01:32:15;99049.94;;;12.26;66.07
40155;BME280;25875;48.202;16.334;2023-05-12T01:34:42;99051.00;;;12.24;66.40
40155;BME280;25875;48.202;16.334;2023-05-12T01:37:09;98968.56;;;11.71;66.61
40155;BME280;25875;48.202;16.334;2023-05-12T01:39:37;99048.25;;;12.25;66.76
40155;BME280;25875;48.202;16.334;2023-05-12T01:42:04;99047.63;;;12.34;66.38
40155;BME280;25875;48.202;16.334;2023-05-12T01:44:32;99041.34;;;12.35;66.66
40155;BME280;25875;48.202;16.334;2023-05-12T01:46:59;99051.38;;;12.44;66.49
40155;BME280;25875;48.202;16.334;2023-05-12T01:49:27;99046.59;;;12.49;66.29
40155;BME280;25875;48.202;16.334;2023-05-12T01:51:53;99049.13;;;12.51;66.72
40155;BME280;25875;48.202;16.334;2023-05-12T01:54:20;99049.56;;;12.45;66.96
40155;BME280;25875;48.202;16.334;2023-05-12T01:56:47;99050.50;;;12.44;67.02
40155;BME280;25875;48.202;16.334;2023-05-12T01:59:14;99047.53;;;12.48;67.03
40155;BME280;25875;48.202;16.334;2023-05-12T02:01:42;99052.66;;;12.51;67.76
40155;BME280;25875;48.202;16.334;2023-05-12T02:04:09;99050.00;;;12.51;67.25
40155;BME280;25875;48.202;16.334;2023-05-12T02:06:35;99044.88;;;12.48;66.97
40155;BME280;25875;48.202;16.334;2023-05-12T02:09:02;98635.72;;;10.04;67.00
40155;BME280;25875;48.202;16.334;2023-05-12T02:11:29;99043.81;;;12.51;67.36
40155;BME280;25875;48.202;16.334;2023-05-12T02:13:56;99046.59;;;12.49;67.57
40155;BME280;25875;48.202;16.334;2023-05-12T02:16:23;99049.25;;;12.49;67.41
40155;BME280;25875;48.202;16.334;2023-05-12T02:18:51;99025.19;;;12.38;67.26
40155;BME280;25875;48.202;16.334;2023-05-12T02:21:17;98951.84;;;11.96;66.93
40155;BME280;25875;48.202;16.334;2023-05-12T02:23:44;99049.38;;;12.61;67.32
40155;BME280;25875;48.202;16.334;2023-05-12T02:26:11;99054.69;;;12.61;67.48
40155;BME280;25875;48.202;16.334;2023-05-12T02:28:37;99050.22;;;12.61;67.52
40155;BME280;25875;48.202;16.334;2023-05-12T02:31:04;99056.50;;;12.60;67.54
40155;BME280;25875;48.202;16.334;2023-05-12T02:33:31;99052.03;;;12.61;67.46
40155;BME280;25875;48.202;16.334;2023-05-12T02:35:59;99056.38;;;12.62;67.53
40155;BME280;25875;48.202;16.334;2023-05-12T02:38:26;99054.47;;;12.64;67.14
40155;BME280;25875;48.202;16.334;2023-05-12T02:40:52;99042.56;;;12.57;67.60
40155;BME280;25875;48.202;16.334;2023-05-12T02:43:19;99045.31;;;12.55;67.73
40155;BME280;25875;48.202;16.334;2023-05-12T02:45:46;99057.44;;;12.46;68.29
40155;BME280;25875;48.202;16.334;2023-05-12T02:48:12;99060.16;;;12.32;68.62
40155;BME280;25875;48.202;16.334;2023-05-12T02:50:39;99049.41;;;12.21;68.84
40155;BME280;25875;48.202;16.334;2023-05-12T02:53:07;99056.78;;;12.16;69.44
40155;BME280;25875;48.202;16.334;2023-05-12T02:55:34;99055.50;;;12.09;69.46
40155;BME280;25875;48.202;16.334;2023-05-12T02:58:01;99061.97;;;12.05;69.62
40155;BME280;25875;48.202;16.334;2023-05-12T03:00:28;99062.06;;;12.03;69.55
40155;BME280;25875;48.202;16.334;2023-05-12T03:02:55;99059.75;;;12.11;69.29
40155;BME280;25875;48.202;16.334;2023-05-12T03:05:21;99057.75;;;12.15;69.65
40155;BME280;25875;48.202;16.334;2023-05-12T03:07:48;99060.81;;;12.09;69.90
40155;BME280;25875;48.202;16.334;2023-05-12T03:10:17;99058.44;;;12.04;70.09
40155;BME280;25875;48.202;16.334;2023-05-12T03:12:43;99031.91;;;11.90;70.60
40155;BME280;25875;48.202;16.334;2023-05-12T03:15:10;99063.47;;;12.09;69.59
40155;BME280;25875;48.202;16.334;2023-05-12T03:17:37;99058.69;;;12.14;69.87
40155;BME280;25875;48.202;16.334;2023-05-12T03:20:05;99062.09;;;12.16;69.42
40155;BME280;25875;48.202;16.334;2023-05-12T03:22:32;99058.31;;;12.20;69.73
40155;BME280;25875;48.202;16.334;2023-05-12T03:24:59;99063.31;;;12.25;69.92
40155;BME280;25875;48.202;16.334;2023-05-12T03:27:29;99059.81;;;12.24;69.99
40155;BME280;25875;48.202;16.334;2023-05-12T03:29:56;99061.53;;;12.25;70.13
40155;BME280;25875;48.202;16.334;2023-05-12T03:32:25;99029.88;;;12.08;70.09
40155;BME280;25875;48.202;16.334;2023-05-12T03:34:51;99052.81;;;12.23;70.18
40155;BME280;25875;48.202;16.334;2023-05-12T03:37:18;99060.78;;;12.23;69.87
40155;BME280;25875;48.202;16.334;2023-05-12T03:39:45;99057.91;;;12.26;69.91
40155;BME280;25875;48.202;16.334;2023-05-12T03:42:12;99014.34;;;12.02;69.86
40155;BME280;25875;48.202;16.334;2023-05-12T03:44:40;99059.50;;;12.29;69.99
40155;BME280;25875;48.202;16.334;2023-05-12T03:47:08;99061.13;;;12.31;69.57
40155;BME280;25875;48.202;16.334;2023-05-12T03:49:34;99060.91;;;12.34;69.31
40155;BME280;25875;48.202;16.334;2023-05-12T03:52:01;99057.19;;;12.37;69.49
40155;BME280;25875;48.202;16.334;2023-05-12T03:54:28;99056.34;;;12.36;69.77
40155;BME280;25875;48.202;16.334;2023-05-12T03:56:55;99065.16;;;12.37;69.56
40155;BME280;25875;48.202;16.334;2023-05-12T03:59:21;99055.38;;;12.37;69.37
40155;BME280;25875;48.202;16.334;2023-05-12T04:01:50;99062.63;;;12.35;70.34
40155;BME280;25875;48.202;16.334;2023-05-12T04:04:17;99061.75;;;12.35;70.23
40155;BME280;25875;48.202;16.334;2023-05-12T04:06:44;99063.78;;;12.31;70.29
40155;BME280;25875;48.202;16.334;2023-05-12T04:09:11;99048.81;;;12.16;69.92
40155;BME280;25875;48.202;16.334;2023-05-12T04:11:37;99067.19;;;12.33;69.82
40155;BME280;25875;48.202;16.334;2023-05-12T04:14:04;99063.47;;;12.36;69.75
40155;BME280;25875;48.202;16.334;2023-05-12T04:16:31;99071.22;;;12.39;69.84
40155;BME280;25875;48.202;16.334;2023-05-12T04:19:01;99065.16;;;12.37;70.35
40155;BME280;25875;48.202;16.334;2023-05-12T04:21:28;99073.13;;;12.37;70.17
40155;BME280;25875;48.202;16.334;2023-05-12T04:23:55;99077.72;;;12.35;70.38
40155;BME280;25875;48.202;16.334;2023-05-12T04:26:21;99077.59;;;12.36;69.92
40155;BME280;25875;48.202;16.334;2023-05-12T04:28:48;99087.28;;;12.37;70.08
40155;BME280;25875;48.202;16.334;2023-05-12T04:31:15;99081.97;;;12.37;70.25
40155;BME280;25875;48.202;16.334;2023-05-12T04:33:41;99087.59;;;12.33;70.19
40155;BME280;25875;48.202;16.334;2023-05-12T04:36:10;99065.53;;;12.18;70.27
40155;BME280;25875;48.202;16.334;2023-05-12T04:38:38;99095.34;;;12.36;70.41
40155;BME280;25875;48.202;16.334;2023-05-12T04:41:04;99092.81;;;12.34;70.25
40155;BME280;25875;48.202;16.334;2023-05-12T04:43:32;99073.03;;;12.11;70.30
40155;BME280;25875;48.202;16.334;2023-05-12T04:45:59;99089.69;;;12.28;70.67
40155;BME280;25875;48.202;16.334;2023-05-12T04:48:26;99100.31;;;12.28;70.37
40155;BME280;25875;48.202;16.334;2023-05-12T04:50:52;99099.56;;;12.26;70.65
40155;BME280;25875;48.202;16.334;2023-05-12T04:53:20;99099.22;;;12.17;70.73
40155;BME280;25875;48.202;16.334;2023-05-12T04:55:47;99102.25;;;12.11;70.99
40155;BME280;25875;48.202;16.334;2023-05-12T04:58:14;99097.59;;;12.15;71.43
40155;BME280;25875;48.202;16.334;2023-05-12T05:00:41;99107.25;;;12.16;71.16
40155;BME280;25875;48.202;16.334;2023-05-12T05:03:08;99105.75;;;12.12;71.37
40155;BME280;25875;48.202;16.334;2023-05-12T05:05:35;99103.22;;;12.10;71.02
40155;BME280;25875;48.202;16.334;2023-05-12T05:08:01;99105.75;;;12.12;70.94
40155;BME280;25875;48.202;16.334;2023-05-12T05:10:29;99105.09;;;12.08;71.18
40155;BME280;25875;48.202;16.334;2023-05-12T05:12:56;99103.97;;;12.12;71.15
40155;BME280;25875;48.202;16.334;2023-05-12T05:15:23;99107.25;;;12.16;71.26
40155;BME280;25875;48.202;16.334;2023-05-12T05:17:49;99100.94;;;12.18;70.96
40155;BME280;25875;48.202;16.334;2023-05-12T05:20:16;98989.28;;;11.52;71.45
40155;BME280;25875;48.202;16.334;2023-05-12T05:22:43;99079.91;;;12.01;71.54
40155;BME280;25875;48.202;16.334;2023-05-12T05:25:10;99107.19;;;12.17;71.45
40155;BME280;25875;48.202;16.334;2023-05-12T05:27:39;99102.63;;;12.19;71.84
40155;BME280;25875;48.202;16.334;2023-05-12T05:30:07;99098.19;;;12.20;71.69
40155;BME280;25875;48.202;16.334;2023-05-12T05:32:34;99099.13;;;12.19;71.60
40155;BME280;25875;48.202;16.334;2023-05-12T05:35:02;99100.25;;;12.15;71.63
40155;BME280;25875;48.202;16.334;2023-05-12T05:37:29;99105.41;;;12.18;71.47
40155;BME280;25875;48.202;16.334;2023-05-12T05:39:56;99102.84;;;12.16;71.66
40155;BME280;25875;48.202;16.334;2023-05-12T05:42:22;99106.25;;;12.18;71.51
40155;BME280;25875;48.202;16.334;2023-05-12T05:44:51;99097.31;;;12.19;71.31
40155;BME280;25875;48.202;16.334;2023-05-12T05:47:18;99099.78;;;12.23;71.74
40155;BME280;25875;48.202;16.334;2023-05-12T05:49:45;99099.97;;;12.19;71.68
40155;BME280;25875;48.202;16.334;2023-05-12T05:52:11;99101.88;;;12.17;71.44
40155;BME280;25875;48.202;16.334;2023-05-12T05:54:38;99061.03;;;11.92;71.66
40155;BME280;25875;48.202;16.334;2023-05-12T05:57:05;99105.94;;;12.23;71.67
40155;BME280;25875;48.202;16.334;2023-05-12T05:59:32;99094.47;;;12.23;71.53
40155;BME280;25875;48.202;16.334;2023-05-12T06:02:00;99101.59;;;12.22;71.80
40155;BME280;25875;48.202;16.334;2023-05-12T06:04:28;99105.00;;;12.24;72.15
40155;BME280;25875;48.202;16.334;2023-05-12T06:06:54;99103.28;;;12.23;72.23
40155;BME280;25875;48.202;16.334;2023-05-12T06:09:21;99112.97;;;12.24;72.03
40155;BME280;25875;48.202;16.334;2023-05-12T06:11:48;99115.81;;;12.21;71.91
40155;BME280;25875;48.202;16.334;2023-05-12T06:14:14;99093.09;;;12.03;72.50
40155;BME280;25875;48.202;16.334;2023-05-12T06:16:41;99125.59;;;12.21;72.18
40155;BME280;25875;48.202;16.334;2023-05-12T06:19:09;99132.50;;;12.23;72.26
40155;BME280;25875;48.202;16.334;2023-05-12T06:21:36;99136.97;;;12.23;72.36
40155;BME280;25875;48.202;16.334;2023-05-12T06:24:03;99129.97;;;12.22;72.14
40155;BME280;25875;48.202;16.334;2023-05-12T06:26:30;99136.59;;;12.14;72.58
40155;BME280;25875;48.202;16.334;2023-05-12T06:28:56;99144.66;;;12.13;72.62
40155;BME280;25875;48.202;16.334;2023-05-12T06:31:23;99144.75;;;12.11;72.92
40155;BME280;25875;48.202;16.334;2023-05-12T06:33:50;99140.19;;;12.13;72.80
40155;BME280;25875;48.202;16.334;2023-05-12T06:36:18;99137.75;;;12.10;72.90
40155;BME280;25875;48.202;16.334;2023-05-12T06:38:44;99138.22;;;12.17;72.72
40155;BME280;25875;48.202;16.334;2023-05-12T06:41:11;99188.50;;;12.20;72.61
40155;BME280;25875;48.202;16.334;2023-05-12T06:43:38;99137.94;;;12.22;72.73
40155;BME280;25875;48.202;16.334;2023-05-12T06:46:04;99128.16;;;12.22;72.87
40155;BME280;25875;48.202;16.334;2023-05-12T06:48:32;99132.31;;;12.26;72.61
40155;BME280;25875;48.202;16.334;2023-05-12T06:50:59;99142.84;;;12.28;72.94
40155;BME280;25875;48.202;16.334;2023-05-12T06:53:27;99139.53;;;12.24;72.83
40155;BME280;25875;48.202;16.334;2023-05-12T06:55:54;99134.22;;;12.24;72.84
40155;BME280;25875;48.202;16.334;2023-05-12T06:58:21;99132.72;;;12.20;73.09
40155;BME280;25875;48.202;16.334;2023-05-12T07:00:48;99131.56;;;12.24;72.95
40155;BME280;25875;48.202;16.334;2023-05-12T07:03:14;98918.44;;;10.99;73.15
40155;BME280;25875;48.202;16.334;2023-05-12T07:05:41;99139.22;;;12.29;73.12
40155;BME280;25875;48.202;16.334;2023-05-12T07:08:08;99142.53;;;12.32;72.85
40155;BME280;25875;48.202;16.334;2023-05-12T07:10:36;99134.56;;;12.32;73.04
40155;BME280;25875;48.202;16.334;2023-05-12T07:13:04;99144.13;;;12.35;73.03
40155;BME280;25875;48.202;16.334;2023-05-12T07:15:33;99139.78;;;12.34;72.83
40155;BME280;25875;48.202;16.334;2023-05-12T07:17:59;99143.38;;;12.33;73.26
40155;BME280;25875;48.202;16.334;2023-05-12T07:20:26;99144.34;;;12.32;73.05
40155;BME280;25875;48.202;16.334;2023-05-12T07:22:53;99138.94;;;12.33;72.85
40155;BME280;25875;48.202;16.334;2023-05-12T07:25:21;99135.31;;;12.34;73.03
40155;BME280;25875;48.202;16.334;2023-05-12T07:27:49;99133.50;;;12.35;73.17
40155;BME280;25875;48.202;16.334;2023-05-12T07:30:16;99131.81;;;12.34;72.86
40155;BME280;25875;48.202;16.334;2023-05-12T07:32:42;99135.13;;;12.37;73.35
40155;BME280;25875;48.202;16.334;2023-05-12T07:35:09;99139.38;;;12.40;73.01
40155;BME280;25875;48.202;16.334;2023-05-12T07:37:36;99138.41;;;12.41;72.89
40155;BME280;25875;48.202;16.334;2023-05-12T07:40:04;99135.13;;;12.37;72.75
40155;BME280;25875;48.202;16.334;2023-05-12T07:42:31;99118.56;;;12.19;72.75
40155;BME280;25875;48.202;16.334;2023-05-12T07:44:59;99148.59;;;12.34;72.72
40155;BME280;25875;48.202;16.334;2023-05-12T07:47:26;99151.25;;;12.34;72.57
40155;BME280;25875;48.202;16.334;2023-05-12T07:49:53;99033.06;;;11.59;72.75
40155;BME280;25875;48.202;16.334;2023-05-12T07:52:20;99164.09;;;12.28;72.69
40155;BME280;25875;48.202;16.334;2023-05-12T07:54:48;99084.00;;;11.78;72.91
40155;BME280;25875;48.202;16.334;2023-05-12T07:57:15;99164.66;;;12.33;72.86
40155;BME280;25875;48.202;16.334;2023-05-12T07:59:42;99165.69;;;12.30;72.90
40155;BME280;25875;48.202;16.334;2023-05-12T08:02:10;99170.16;;;12.30;72.88
40155;BME280;25875;48.202;16.334;2023-05-12T08:04:37;99165.06;;;12.27;73.15
40155;BME280;25875;48.202;16.334;2023-05-12T08:07:05;99176.44;;;12.29;73.19
40155;BME280;25875;48.202;16.334;2023-05-12T08:09:31;99173.13;;;12.25;73.01
40155;BME280;25875;48.202;16.334;2023-05-12T08:11:58;99180.44;;;12.22;72.99
40155;BME280;25875;48.202;16.334;2023-05-12T08:14:27;99172.56;;;12.20;73.14
40155;BME280;25875;48.202;16.334;2023-05-12T08:16:53;99184.59;;;12.26;73.01
40155;BME280;25875;48.202;16.334;2023-05-12T08:19:22;99179.94;;;12.29;73.16
40155;BME280;25875;48.202;16.334;2023-05-12T08:21:48;99171.22;;;12.27;73.03
40155;BME280;25875;48.202;16.334;2023-05-12T08:24:15;99188.09;;;12.26;73.46
40155;BME280;25875;48.202;16.334;2023-05-12T08:26:42;99143.53;;;12.03;73.82
40155;BME280;25875;48.202;16.334;2023-05-12T08:29:09;99186.22;;;12.28;73.55
40155;BME280;25875;48.202;16.334;2023-05-12T08:31:37;99190.47;;;12.31;73.68
40155;BME280;25875;48.202;16.334;2023-05-12T08:34:04;99145.50;;;12.13;73.57
40155;BME280;25875;48.202;16.334;2023-05-12T08:36:32;99182.00;;;12.38;73.69
40155;BME280;25875;48.202;16.334;2023-05-12T08:38:59;99142.59;;;12.04;73.46
40155;BME280;25875;48.202;16.334;2023-05-12T08:41:36;99173.13;;;12.25;73.97
40155;BME280;25875;48.202;16.334;2023-05-12T08:44:06;99186.22;;;12.28;73.55
40155;BME280;25875;48.202;16.334;2023-05-12T08:46:34;99185.81;;;12.34;73.63
40155;BME280;25875;48.202;16.334;2023-05-12T08:49:03;99183.25;;;12.33;73.42
40155;BME280;25875;48.202;16.334;2023-05-12T08:51:32;99177.94;;;12.33;73.75
40155;BME280;25875;48.202;16.334;2023-05-12T08:54:02;99182.59;;;12.29;72.89
40155;BME280;25875;48.202;16.334;2023-05-12T08:56:30;99183.66;;;12.27;73.15
40155;BME280;25875;48.202;16.334;2023-05-12T08:58:59;99182.25;;;12.21;73.41
40155;BME280;25875;48.202;16.334;2023-05-12T09:01:28;99181.84;;;12.27;73.84
40155;BME280;25875;48.202;16.334;2023-05-12T09:03:55;99189.06;;;12.25;73.56
40155;BME280;25875;48.202;16.334;2023-05-12T09:06:22;99195.31;;;12.24;73.33
40155;BME280;25875;48.202;16.334;2023-05-12T09:08:51;99195.53;;;12.21;73.61
40155;BME280;25875;48.202;16.334;2023-05-12T09:11:18;99205.75;;;12.13;73.78
40155;BME280;25875;48.202;16.334;2023-05-12T09:13:50;99206.91;;;12.09;73.67
40155;BME280;25875;48.202;16.334;2023-05-12T09:16:22;99167.19;;;11.79;73.78
40155;BME280;25875;48.202;16.334;2023-05-12T09:18:52;99218.56;;;12.06;73.92
40155;BME280;25875;48.202;16.334;2023-05-12T09:21:19;98844.66;;;9.79;73.72
40155;BME280;25875;48.202;16.334;2023-05-12T09:23:55;99179.78;;;11.61;74.51
40155;BME280;25875;48.202;16.334;2023-05-12T09:26:23;99229.94;;;11.80;74.22
40155;BME280;25875;48.202;16.334;2023-05-12T09:28:52;99232.31;;;11.70;74.57
40155;BME280;25875;48.202;16.334;2023-05-12T09:31:21;99227.19;;;11.67;74.83
40155;BME280;25875;48.202;16.334;2023-05-12T09:33:48;99227.47;;;11.63;75.01
40155;BME280;25875;48.202;16.334;2023-05-12T09:36:17;99220.38;;;11.63;75.38
40155;BME280;25875;48.202;16.334;2023-05-12T09:38:44;99227.19;;;11.67;75.14
40155;BME280;25875;48.202;16.334;2023-05-12T09:41:12;99228.91;;;11.68;74.96
40155;BME280;25875;48.202;16.334;2023-05-12T09:43:43;99179.22;;;11.42;76.04
40155;BME280;25875;48.202;16.334;2023-05-12T09:46:11;99233.06;;;11.72;75.06
40155;BME280;25875;48.202;16.334;2023-05-12T09:48:38;99229.94;;;11.66;74.53
40155;BME280;25875;48.202;16.334;2023-05-12T09:51:09;99226.81;;;11.59;74.81
40155;BME280;25875;48.202;16.334;2023-05-12T09:53:40;99227.75;;;11.58;74.95
40155;BME280;25875;48.202;16.334;2023-05-12T09:56:14;99202.25;;;11.41;74.58
40155;BME280;25875;48.202;16.334;2023-05-12T09:58:42;99235.72;;;11.58;74.49
40155;BME280;25875;48.202;16.334;2023-05-12T10:01:11;99237.53;;;11.57;74.69
40155;BME280;25875;48.202;16.334;2023-05-12T10:03:39;99233.75;;;11.62;74.46
40155;BME280;25875;48.202;16.334;2023-05-12T10:06:10;99163.09;;;11.16;74.47
40155;BME280;25875;48.202;16.334;2023-05-12T10:08:43;99229.75;;;11.54;75.12
40155;BME280;25875;48.202;16.334;2023-05-12T10:11:13;99237.91;;;11.51;74.67
40155;BME280;25875;48.202;16.334;2023-05-12T10:13:40;99232.50;;;11.53;74.22
40155;BME280;25875;48.202;16.334;2023-05-12T10:16:08;99228.81;;;11.55;74.19
40155;BME280;25875;48.202;16.334;2023-05-12T10:18:36;99229.47;;;11.59;73.85
40155;BME280;25875;48.202;16.334;2023-05-12T10:21:04;99239.41;;;11.55;73.68
40155;BME280;25875;48.202;16.334;2023-05-12T10:23:33;99244.91;;;11.52;73.66
40155;BME280;25875;48.202;16.334;2023-05-12T10:26:01;99246.13;;;11.47;73.65
40155;BME280;25875;48.202;16.334;2023-05-12T10:28:30;99238.38;;;11.44;74.04
40155;BME280;25875;48.202;16.334;2023-05-12T10:30:57;99238.84;;;11.50;74.02
40155;BME280;25875;48.202;16.334;2023-05-12T10:33:24;99233.63;;;11.49;73.80
40155;BME280;25875;48.202;16.334;2023-05-12T10:35:52;99191.06;;;11.22;73.83
40155;BME280;25875;48.202;16.334;2023-05-12T10:38:18;99173.63;;;11.18;73.48
40155;BME280;25875;48.202;16.334;2023-05-12T10:40:51;99247.38;;;11.55;73.55
40155;BME280;25875;48.202;16.334;2023-05-12T10:43:21;99243.03;;;11.54;72.92
40155;BME280;25875;48.202;16.334;2023-05-12T10:46:08;99218.19;;;11.41;73.11
40155;BME280;25875;48.202;16.334;2023-05-12T10:48:36;99241.69;;;11.62;72.64
40155;BME280;25875;48.202;16.334;2023-05-12T10:51:07;99247.50;;;11.68;72.83
40155;BME280;25875;48.202;16.334;2023-05-12T10:53:35;99249.94;;;11.71;72.15
40155;BME280;25875;48.202;16.334;2023-05-12T10:56:02;99212.88;;;11.41;71.59
40155;BME280;25875;48.202;16.334;2023-05-12T10:58:29;99243.50;;;11.61;70.69
40155;BME280;25875;48.202;16.334;2023-05-12T11:01:03;99252.78;;;11.54;70.60
40155;BME280;25875;48.202;16.334;2023-05-12T11:03:32;99251.34;;;11.48;71.08
40155;BME280;25875;48.202;16.334;2023-05-12T11:06:00;99246.31;;;11.44;71.04
40155;BME280;25875;48.202;16.334;2023-05-12T11:08:27;99250.41;;;11.49;71.48
40155;BME280;25875;48.202;16.334;2023-05-12T11:10:55;99202.25;;;11.27;70.99
40155;BME280;25875;48.202;16.334;2023-05-12T11:13:23;99216.00;;;11.34;70.91
40155;BME280;25875;48.202;16.334;2023-05-12T11:15:49;99181.72;;;11.01;70.63
40155;BME280;25875;48.202;16.334;2023-05-12T11:18:20;99252.88;;;11.52;70.85
40155;BME280;25875;48.202;16.334;2023-05-12T11:20:48;99209.06;;;11.31;71.17
40155;BME280;25875;48.202;16.334;2023-05-12T11:23:25;99252.78;;;11.54;71.99
40155;BME280;25875;48.202;16.334;2023-05-12T11:25:53;99225.09;;;11.44;71.84
40155;BME280;25875;48.202;16.334;2023-05-12T11:28:20;99257.25;;;11.68;71.46
40155;BME280;25875;48.202;16.334;2023-05-12T11:30:51;99248.06;;;11.73;71.73
40155;BME280;25875;48.202;16.334;2023-05-12T11:33:21;99171.72;;;11.20;71.56
40155;BME280;25875;48.202;16.334;2023-05-12T11:35:50;99265.41;;;11.79;71.35
40155;BME280;25875;48.202;16.334;2023-05-12T11:38:17;99210.03;;;11.44;71.23
40155;BME280;25875;48.202;16.334;2023-05-12T11:40:46;99263.44;;;11.82;71.25
40155;BME280;25875;48.202;16.334;2023-05-12T11:43:12;99268.34;;;11.88;71.11
40155;BME280;25875;48.202;16.334;2023-05-12T11:45:40;99278.03;;;11.89;70.95
40155;BME280;25875;48.202;16.334;2023-05-12T11:48:08;99160.81;;;11.10;70.46
40155;BME280;25875;48.202;16.334;2023-05-12T11:50:37;99269.69;;;11.81;70.97
40155;BME280;25875;48.202;16.334;2023-05-12T11:53:09;99283.06;;;11.80;71.40
40155;BME280;25875;48.202;16.334;2023-05-12T11:55:36;99274.13;;;11.81;71.34
40155;BME280;25875;48.202;16.334;2023-05-12T11:58:03;99269.78;;;11.80;71.31
40155;BME280;25875;48.202;16.334;2023-05-12T12:00:32;99274.13;;;11.81;71.72
40155;BME280;25875;48.202;16.334;2023-05-12T12:03:07;99216.94;;;11.47;71.80
40155;BME280;25875;48.202;16.334;2023-05-12T12:05:33;99275.94;;;11.80;72.39
40155;BME280;25875;48.202;16.334;2023-05-12T12:08:06;99280.41;;;11.80;72.10
40155;BME280;25875;48.202;16.334;2023-05-12T12:10:33;99288.25;;;11.81;71.90
40155;BME280;25875;48.202;16.334;2023-05-12T12:13:00;99290.44;;;11.89;71.77
40155;BME280;25875;48.202;16.334;2023-05-12T12:15:28;99291.50;;;11.86;71.97
40155;BME280;25875;48.202;16.334;2023-05-12T12:17:55;99291.09;;;11.78;71.95
40155;BME280;25875;48.202;16.334;2023-05-12T12:20:22;99274.97;;;11.67;72.23
40155;BME280;25875;48.202;16.334;2023-05-12T12:22:51;99288.75;;;11.74;72.75
40155;BME280;25875;48.202;16.334;2023-05-12T12:25:20;99285.03;;;11.76;72.88
40155;BME280;25875;48.202;16.334;2023-05-12T12:27:47;99291.97;;;11.79;72.72
40155;BME280;25875;48.202;16.334;2023-05-12T12:30:14;99267.22;;;11.64;72.50
40155;BME280;25875;48.202;16.334;2023-05-12T12:32:41;99292.63;;;11.82;72.51
40155;BME280;25875;48.202;16.334;2023-05-12T12:35:09;99301.16;;;11.87;72.14
40155;BME280;25875;48.202;16.334;2023-05-12T12:37:37;99258.09;;;11.68;72.23
40155;BME280;25875;48.202;16.334;2023-05-12T12:40:05;99296.13;;;11.83;71.75
40155;BME280;25875;48.202;16.334;2023-05-12T12:42:37;99302.78;;;11.76;71.89
40155;BME280;25875;48.202;16.334;2023-05-12T12:45:07;99295.94;;;11.72;71.83
40155;BME280;25875;48.202;16.334;2023-05-12T12:47:35;99302.97;;;11.73;72.01
40155;BME280;25875;48.202;16.334;2023-05-12T12:50:03;99248.59;;;11.36;71.66
40155;BME280;25875;48.202;16.334;2023-05-12T12:52:30;99290.25;;;11.64;72.10